sensor_id;sensor_type;location;lat;lon;timestamp;temperature;humidity
10512;DHT22;5304;48.604;2.096;2022-09-23T00:01:00;9.50;99.90
10512;DHT22;5304;48.604;2.096;2022-09-23T00:03:46;9.60;99.90
10512;DHT22;5304;48.604;2.096;2022-09-23T00:06:32;9.50;99.90
10512;DHT22;5304;48.604;2.096;2022-09-23T00:09:16;9.50;99.90
10512;DHT22;5304;48.604;2.096;2022-09-23T00:12:01;9.50;99.90
10512;DHT22;5304;48.604;2.096;2022-09-23T00:14:46;9.50;99.90
10512;DHT22;5304;48.604;2.096;2022-09-23T00:17:31;9.50;99.90
10512;DHT22;5304;48.604;2.096;2022-09-23T00:20:16;9.40;99.90
10512;DHT22;5304;48.604;2.096;2022-09-23T00:23:01;9.40;99.90
10512;DHT22;5304;48.604;2.096;2022-09-23T00:25:58;9.30;99.90
10512;DHT22;5304;48.604;2.096;2022-09-23T00:28:43;9.30;99.90
10512;DHT22;5304;48.604;2.096;2022-09-23T00:31:28;9.30;99.90
10512;DHT22;5304;48.604;2.096;2022-09-23T00:34:12;9.30;99.90
10512;DHT22;5304;48.604;2.096;2022-09-23T00:36:57;9.20;99.90
10512;DHT22;5304;48.604;2.096;2022-09-23T00:39:41;9.20;99.90
10512;DHT22;5304;48.604;2.096;2022-09-23T00:42:25;9.20;99.90
10512;DHT22;5304;48.604;2.096;2022-09-23T00:45:10;9.10;99.90
10512;DHT22;5304;48.604;2.096;2022-09-23T00:47:58;9.10;99.90
10512;DHT22;5304;48.604;2.096;2022-09-23T00:50:47;9.10;99.90
10512;DHT22;5304;48.604;2.096;2022-09-23T00:53:32;9.20;99.90
10512;DHT22;5304;48.604;2.096;2022-09-23T00:56:20;9.20;99.90
10512;DHT22;5304;48.604;2.096;2022-09-23T00:59:06;9.20;99.90
10512;DHT22;5304;48.604;2.096;2022-09-23T01:01:54;9.10;99.90
10512;DHT22;5304;48.604;2.096;2022-09-23T01:04:40;9.00;99.90
10512;DHT22;5304;48.604;2.096;2022-09-23T01:07:25;9.00;99.90
10512;DHT22;5304;48.604;2.096;2022-09-23T01:10:11;9.00;99.90
10512;DHT22;5304;48.604;2.096;2022-09-23T01:13:16;8.90;99.90
10512;DHT22;5304;48.604;2.096;2022-09-23T01:16:32;8.90;99.90
10512;DHT22;5304;48.604;2.096;2022-09-23T01:19:45;8.90;99.90
10512;DHT22;5304;48.604;2.096;2022-09-23T01:22:37;8.90;99.90
10512;DHT22;5304;48.604;2.096;2022-09-23T01:29:01;8.80;99.90
10512;DHT22;5304;48.604;2.096;2022-09-23T01:32:00;8.80;99.90
10512;DHT22;5304;48.604;2.096;2022-09-23T01:40:56;8.70;99.90
10512;DHT22;5304;48.604;2.096;2022-09-23T01:46:58;8.60;99.90
10512;DHT22;5304;48.604;2.096;2022-09-23T01:49:55;8.70;99.90
10512;DHT22;5304;48.604;2.096;2022-09-23T01:52:43;8.90;99.90
10512;DHT22;5304;48.604;2.096;2022-09-23T01:55:34;8.90;99.90
10512;DHT22;5304;48.604;2.096;2022-09-23T01:58:44;8.90;99.90
10512;DHT22;5304;48.604;2.096;2022-09-23T02:04:46;8.80;99.90
10512;DHT22;5304;48.604;2.096;2022-09-23T02:10:56;8.70;99.90
10512;DHT22;5304;48.604;2.096;2022-09-23T02:14:00;8.70;99.90
10512;DHT22;5304;48.604;2.096;2022-09-23T02:16:48;8.70;99.90
10512;DHT22;5304;48.604;2.096;2022-09-23T02:19:58;8.70;99.90
10512;DHT22;5304;48.604;2.096;2022-09-23T02:25:44;8.80;99.90
10512;DHT22;5304;48.604;2.096;2022-09-23T02:29:00;8.80;99.90
10512;DHT22;5304;48.604;2.096;2022-09-23T02:35:54;8.80;99.90
10512;DHT22;5304;48.604;2.096;2022-09-23T02:38:44;8.80;99.90
10512;DHT22;5304;48.604;2.096;2022-09-23T02:44:33;8.70;99.90
10512;DHT22;5304;48.604;2.096;2022-09-23T02:47:21;8.70;99.90
10512;DHT22;5304;48.604;2.096;2022-09-23T02:50:08;8.70;99.90
10512;DHT22;5304;48.604;2.096;2022-09-23T02:52:52;8.70;99.90
10512;DHT22;5304;48.604;2.096;2022-09-23T02:55:38;8.60;99.90
10512;DHT22;5304;48.604;2.096;2022-09-23T02:58:23;8.70;99.90
10512;DHT22;5304;48.604;2.096;2022-09-23T03:01:43;8.70;99.90
10512;DHT22;5304;48.604;2.096;2022-09-23T03:17:02;9.00;99.90
10512;DHT22;5304;48.604;2.096;2022-09-23T03:20:00;9.00;99.90
10512;DHT22;5304;48.604;2.096;2022-09-23T03:22:50;9.00;99.90
10512;DHT22;5304;48.604;2.096;2022-09-23T03:25:38;8.90;99.90
10512;DHT22;5304;48.604;2.096;2022-09-23T03:28:24;8.90;99.90
10512;DHT22;5304;48.604;2.096;2022-09-23T03:31:10;8.80;99.90
10512;DHT22;5304;48.604;2.096;2022-09-23T03:33:58;8.70;99.90
10512;DHT22;5304;48.604;2.096;2022-09-23T03:37:38;8.70;99.90
10512;DHT22;5304;48.604;2.096;2022-09-23T03:40:28;8.60;99.90
10512;DHT22;5304;48.604;2.096;2022-09-23T03:43:13;8.60;99.90
10512;DHT22;5304;48.604;2.096;2022-09-23T03:45:58;8.50;99.90
10512;DHT22;5304;48.604;2.096;2022-09-23T03:48:44;8.60;99.90
10512;DHT22;5304;48.604;2.096;2022-09-23T03:51:29;8.60;99.90
10512;DHT22;5304;48.604;2.096;2022-09-23T03:54:13;8.50;99.90
10512;DHT22;5304;48.604;2.096;2022-09-23T03:56:58;8.50;99.90
10512;DHT22;5304;48.604;2.096;2022-09-23T03:59:43;8.60;99.90
10512;DHT22;5304;48.604;2.096;2022-09-23T04:02:27;8.60;99.90
10512;DHT22;5304;48.604;2.096;2022-09-23T04:05:12;8.60;99.90
10512;DHT22;5304;48.604;2.096;2022-09-23T04:07:57;8.60;99.90
10512;DHT22;5304;48.604;2.096;2022-09-23T04:10:41;8.60;99.90
10512;DHT22;5304;48.604;2.096;2022-09-23T04:13:26;8.60;99.90
10512;DHT22;5304;48.604;2.096;2022-09-23T04:16:11;8.60;99.90
10512;DHT22;5304;48.604;2.096;2022-09-23T04:18:56;8.70;99.90
10512;DHT22;5304;48.604;2.096;2022-09-23T04:21:41;8.60;99.90
10512;DHT22;5304;48.604;2.096;2022-09-23T04:24:26;8.60;99.90
10512;DHT22;5304;48.604;2.096;2022-09-23T04:27:10;8.70;99.90
10512;DHT22;5304;48.604;2.096;2022-09-23T04:29:54;8.70;99.90
10512;DHT22;5304;48.604;2.096;2022-09-23T04:32:39;8.70;99.90
10512;DHT22;5304;48.604;2.096;2022-09-23T04:35:23;8.90;99.90
10512;DHT22;5304;48.604;2.096;2022-09-23T04:38:10;8.80;99.90
10512;DHT22;5304;48.604;2.096;2022-09-23T04:40:55;8.80;99.90
10512;DHT22;5304;48.604;2.096;2022-09-23T04:43:40;8.80;99.90
10512;DHT22;5304;48.604;2.096;2022-09-23T04:46:25;8.70;99.90
10512;DHT22;5304;48.604;2.096;2022-09-23T04:49:09;8.60;99.90
10512;DHT22;5304;48.604;2.096;2022-09-23T04:51:55;8.60;99.90
10512;DHT22;5304;48.604;2.096;2022-09-23T04:54:39;8.60;99.90
10512;DHT22;5304;48.604;2.096;2022-09-23T04:57:24;8.50;99.90
10512;DHT22;5304;48.604;2.096;2022-09-23T05:00:10;8.40;99.90
10512;DHT22;5304;48.604;2.096;2022-09-23T05:02:58;8.30;99.90
10512;DHT22;5304;48.604;2.096;2022-09-23T05:05:43;8.30;99.90
10512;DHT22;5304;48.604;2.096;2022-09-23T05:08:27;8.30;99.90
10512;DHT22;5304;48.604;2.096;2022-09-23T05:11:12;8.30;99.90
10512;DHT22;5304;48.604;2.096;2022-09-23T05:13:57;8.20;99.90
10512;DHT22;5304;48.604;2.096;2022-09-23T05:16:41;8.20;99.90
10512;DHT22;5304;48.604;2.096;2022-09-23T05:19:25;8.20;99.90
10512;DHT22;5304;48.604;2.096;2022-09-23T05:22:09;8.20;99.90
10512;DHT22;5304;48.604;2.096;2022-09-23T05:24:54;8.20;99.90
10512;DHT22;5304;48.604;2.096;2022-09-23T05:27:38;8.30;99.90
10512;DHT22;5304;48.604;2.096;2022-09-23T05:30:23;8.30;99.90
10512;DHT22;5304;48.604;2.096;2022-09-23T05:33:07;8.30;99.90
10512;DHT22;5304;48.604;2.096;2022-09-23T05:35:51;8.30;99.90
10512;DHT22;5304;48.604;2.096;2022-09-23T05:38:37;8.30;99.90
10512;DHT22;5304;48.604;2.096;2022-09-23T05:41:22;8.30;99.90
10512;DHT22;5304;48.604;2.096;2022-09-23T05:44:07;8.30;99.90
10512;DHT22;5304;48.604;2.096;2022-09-23T05:46:52;8.30;99.90
10512;DHT22;5304;48.604;2.096;2022-09-23T05:49:36;8.20;99.90
10512;DHT22;5304;48.604;2.096;2022-09-23T05:52:21;8.20;99.90
10512;DHT22;5304;48.604;2.096;2022-09-23T05:55:05;8.20;99.90
10512;DHT22;5304;48.604;2.096;2022-09-23T05:57:50;8.30;99.90
10512;DHT22;5304;48.604;2.096;2022-09-23T06:00:34;8.40;99.90
10512;DHT22;5304;48.604;2.096;2022-09-23T06:03:19;8.40;99.90
10512;DHT22;5304;48.604;2.096;2022-09-23T06:06:04;8.40;99.90
10512;DHT22;5304;48.604;2.096;2022-09-23T06:08:49;8.40;99.90
10512;DHT22;5304;48.604;2.096;2022-09-23T06:11:35;8.50;99.90
10512;DHT22;5304;48.604;2.096;2022-09-23T06:14:20;8.60;99.90
10512;DHT22;5304;48.604;2.096;2022-09-23T06:17:04;8.60;99.90
10512;DHT22;5304;48.604;2.096;2022-09-23T06:19:49;8.70;99.90
10512;DHT22;5304;48.604;2.096;2022-09-23T06:22:33;8.70;99.90
10512;DHT22;5304;48.604;2.096;2022-09-23T06:25:18;8.90;99.90
10512;DHT22;5304;48.604;2.096;2022-09-23T06:28:02;8.90;99.90
10512;DHT22;5304;48.604;2.096;2022-09-23T06:30:47;8.90;99.90
10512;DHT22;5304;48.604;2.096;2022-09-23T06:33:33;8.90;99.90
10512;DHT22;5304;48.604;2.096;2022-09-23T06:36:18;8.90;99.90
10512;DHT22;5304;48.604;2.096;2022-09-23T06:39:03;9.00;99.90
10512;DHT22;5304;48.604;2.096;2022-09-23T06:41:48;9.00;99.90
10512;DHT22;5304;48.604;2.096;2022-09-23T06:44:32;9.10;99.90
10512;DHT22;5304;48.604;2.096;2022-09-23T06:47:16;9.20;99.90
10512;DHT22;5304;48.604;2.096;2022-09-23T06:50:01;9.30;99.90
10512;DHT22;5304;48.604;2.096;2022-09-23T06:52:50;9.40;99.90
10512;DHT22;5304;48.604;2.096;2022-09-23T06:55:35;9.70;99.90
10512;DHT22;5304;48.604;2.096;2022-09-23T06:58:20;10.00;99.90
10512;DHT22;5304;48.604;2.096;2022-09-23T07:01:10;9.90;99.90
10512;DHT22;5304;48.604;2.096;2022-09-23T07:03:54;9.90;99.90
10512;DHT22;5304;48.604;2.096;2022-09-23T07:06:39;9.80;99.90
10512;DHT22;5304;48.604;2.096;2022-09-23T07:09:23;9.80;99.90
10512;DHT22;5304;48.604;2.096;2022-09-23T07:12:08;10.00;99.90
10512;DHT22;5304;48.604;2.096;2022-09-23T07:14:53;10.10;99.90
10512;DHT22;5304;48.604;2.096;2022-09-23T07:17:40;10.10;99.90
10512;DHT22;5304;48.604;2.096;2022-09-23T07:20:26;10.20;99.90
10512;DHT22;5304;48.604;2.096;2022-09-23T07:23:10;10.10;99.90
10512;DHT22;5304;48.604;2.096;2022-09-23T07:25:57;10.10;99.90
10512;DHT22;5304;48.604;2.096;2022-09-23T07:28:42;10.10;99.90
10512;DHT22;5304;48.604;2.096;2022-09-23T07:31:27;10.30;99.90
10512;DHT22;5304;48.604;2.096;2022-09-23T07:34:11;10.40;99.90
10512;DHT22;5304;48.604;2.096;2022-09-23T07:36:56;10.60;99.90
10512;DHT22;5304;48.604;2.096;2022-09-23T07:39:41;10.60;99.90
10512;DHT22;5304;48.604;2.096;2022-09-23T07:42:25;10.70;99.90
10512;DHT22;5304;48.604;2.096;2022-09-23T07:45:10;10.80;99.90
10512;DHT22;5304;48.604;2.096;2022-09-23T07:47:55;10.90;99.90
10512;DHT22;5304;48.604;2.096;2022-09-23T07:50:39;11.00;99.90
10512;DHT22;5304;48.604;2.096;2022-09-23T07:53:24;11.20;99.90
10512;DHT22;5304;48.604;2.096;2022-09-23T07:56:08;11.40;99.90
10512;DHT22;5304;48.604;2.096;2022-09-23T07:58:55;11.60;99.90
10512;DHT22;5304;48.604;2.096;2022-09-23T08:01:48;11.80;99.90
10512;DHT22;5304;48.604;2.096;2022-09-23T08:04:34;11.80;99.90
10512;DHT22;5304;48.604;2.096;2022-09-23T08:07:18;12.10;99.90
10512;DHT22;5304;48.604;2.096;2022-09-23T08:10:04;12.30;99.90
10512;DHT22;5304;48.604;2.096;2022-09-23T08:12:50;12.40;99.90
10512;DHT22;5304;48.604;2.096;2022-09-23T08:15:35;12.40;99.90
10512;DHT22;5304;48.604;2.096;2022-09-23T08:18:19;12.40;99.90
10512;DHT22;5304;48.604;2.096;2022-09-23T08:21:04;12.50;99.90
10512;DHT22;5304;48.604;2.096;2022-09-23T08:23:48;12.50;99.90
10512;DHT22;5304;48.604;2.096;2022-09-23T08:26:35;12.60;99.90
10512;DHT22;5304;48.604;2.096;2022-09-23T08:29:23;12.90;99.90
10512;DHT22;5304;48.604;2.096;2022-09-23T08:32:07;13.00;99.90
10512;DHT22;5304;48.604;2.096;2022-09-23T08:34:52;13.30;99.90
10512;DHT22;5304;48.604;2.096;2022-09-23T08:37:36;13.60;99.90
10512;DHT22;5304;48.604;2.096;2022-09-23T08:40:21;13.50;99.90
10512;DHT22;5304;48.604;2.096;2022-09-23T08:43:10;13.50;99.90
10512;DHT22;5304;48.604;2.096;2022-09-23T08:46:05;13.50;99.90
10512;DHT22;5304;48.604;2.096;2022-09-23T08:48:52;13.50;99.90
10512;DHT22;5304;48.604;2.096;2022-09-23T08:51:42;13.50;99.90
10512;DHT22;5304;48.604;2.096;2022-09-23T08:54:30;13.60;99.90
10512;DHT22;5304;48.604;2.096;2022-09-23T09:07:28;13.60;99.90
10512;DHT22;5304;48.604;2.096;2022-09-23T09:10:23;13.60;99.90
10512;DHT22;5304;48.604;2.096;2022-09-23T09:13:40;13.70;99.90
10512;DHT22;5304;48.604;2.096;2022-09-23T09:16:31;13.70;99.90
10512;DHT22;5304;48.604;2.096;2022-09-23T09:19:47;13.90;99.90
10512;DHT22;5304;48.604;2.096;2022-09-23T09:22:49;14.10;99.90
10512;DHT22;5304;48.604;2.096;2022-09-23T09:25:42;14.30;99.90
10512;DHT22;5304;48.604;2.096;2022-09-23T09:28:45;14.50;99.90
10512;DHT22;5304;48.604;2.096;2022-09-23T09:31:45;15.00;99.90
10512;DHT22;5304;48.604;2.096;2022-09-23T09:37:26;16.20;99.90
10512;DHT22;5304;48.604;2.096;2022-09-23T09:40:14;16.80;99.90
10512;DHT22;5304;48.604;2.096;2022-09-23T09:43:03;17.30;99.90
10512;DHT22;5304;48.604;2.096;2022-09-23T09:49:07;18.50;99.90
10512;DHT22;5304;48.604;2.096;2022-09-23T09:58:02;19.80;99.90
10512;DHT22;5304;48.604;2.096;2022-09-23T10:00:48;20.20;99.90
10512;DHT22;5304;48.604;2.096;2022-09-23T10:03:41;20.20;99.90
10512;DHT22;5304;48.604;2.096;2022-09-23T10:06:29;20.00;99.90
10512;DHT22;5304;48.604;2.096;2022-09-23T10:09:16;19.80;99.90
10512;DHT22;5304;48.604;2.096;2022-09-23T10:12:17;19.50;99.90
10512;DHT22;5304;48.604;2.096;2022-09-23T10:15:02;19.40;99.90
10512;DHT22;5304;48.604;2.096;2022-09-23T10:17:49;19.30;99.90
10512;DHT22;5304;48.604;2.096;2022-09-23T10:20:34;19.30;99.90
10512;DHT22;5304;48.604;2.096;2022-09-23T10:23:25;19.30;99.90
10512;DHT22;5304;48.604;2.096;2022-09-23T10:26:11;19.30;99.90
10512;DHT22;5304;48.604;2.096;2022-09-23T10:29:02;19.30;99.90
10512;DHT22;5304;48.604;2.096;2022-09-23T10:31:48;19.40;99.90
10512;DHT22;5304;48.604;2.096;2022-09-23T10:34:42;19.60;99.90
10512;DHT22;5304;48.604;2.096;2022-09-23T10:37:33;19.30;99.90
10512;DHT22;5304;48.604;2.096;2022-09-23T10:40:38;19.40;99.90
10512;DHT22;5304;48.604;2.096;2022-09-23T10:43:56;19.50;99.90
10512;DHT22;5304;48.604;2.096;2022-09-23T10:50:13;19.50;99.90
10512;DHT22;5304;48.604;2.096;2022-09-23T10:56:45;19.30;99.90
10512;DHT22;5304;48.604;2.096;2022-09-23T11:06:31;19.10;99.90
10512;DHT22;5304;48.604;2.096;2022-09-23T11:09:32;19.10;99.90
10512;DHT22;5304;48.604;2.096;2022-09-23T11:19:28;19.30;99.90
10512;DHT22;5304;48.604;2.096;2022-09-23T11:37:04;20.60;99.90
10512;DHT22;5304;48.604;2.096;2022-09-23T11:43:03;20.90;99.90
10512;DHT22;5304;48.604;2.096;2022-09-23T11:55:16;21.80;99.90
10512;DHT22;5304;48.604;2.096;2022-09-23T11:58:17;21.60;99.90
10512;DHT22;5304;48.604;2.096;2022-09-23T12:01:23;21.70;99.90
10512;DHT22;5304;48.604;2.096;2022-09-23T12:04:18;21.80;99.90
10512;DHT22;5304;48.604;2.096;2022-09-23T12:10:03;21.40;99.90
10512;DHT22;5304;48.604;2.096;2022-09-23T12:13:19;21.30;99.90
10512;DHT22;5304;48.604;2.096;2022-09-23T12:16:24;21.10;99.90
10512;DHT22;5304;48.604;2.096;2022-09-23T12:28:22;20.90;99.90
10512;DHT22;5304;48.604;2.096;2022-09-23T12:31:16;21.10;99.90
10512;DHT22;5304;48.604;2.096;2022-09-23T12:34:19;21.20;99.90
10512;DHT22;5304;48.604;2.096;2022-09-23T12:37:05;21.00;99.90
10512;DHT22;5304;48.604;2.096;2022-09-23T12:39:50;21.00;99.90
10512;DHT22;5304;48.604;2.096;2022-09-23T12:42:39;21.10;99.90
10512;DHT22;5304;48.604;2.096;2022-09-23T12:59:26;21.20;99.90
10512;DHT22;5304;48.604;2.096;2022-09-23T13:02:32;21.30;99.90
10512;DHT22;5304;48.604;2.096;2022-09-23T13:05:25;21.40;99.90
10512;DHT22;5304;48.604;2.096;2022-09-23T13:08:28;21.70;99.90
10512;DHT22;5304;48.604;2.096;2022-09-23T13:11:22;21.70;99.90
10512;DHT22;5304;48.604;2.096;2022-09-23T13:14:21;21.40;99.90
10512;DHT22;5304;48.604;2.096;2022-09-23T13:17:19;21.20;99.90
10512;DHT22;5304;48.604;2.096;2022-09-23T13:23:04;21.10;
10512;DHT22;5304;48.604;2.096;2022-09-23T13:26:02;21.20;99.90
10512;DHT22;5304;48.604;2.096;2022-09-23T13:28:56;21.30;99.90
10512;DHT22;5304;48.604;2.096;2022-09-23T13:31:41;21.30;99.90
10512;DHT22;5304;48.604;2.096;2022-09-23T13:34:31;21.20;99.90
10512;DHT22;5304;48.604;2.096;2022-09-23T13:37:22;21.30;99.90
10512;DHT22;5304;48.604;2.096;2022-09-23T13:43:26;21.30;99.90
10512;DHT22;5304;48.604;2.096;2022-09-23T13:46:12;21.30;99.90
10512;DHT22;5304;48.604;2.096;2022-09-23T13:48:59;21.40;99.90
10512;DHT22;5304;48.604;2.096;2022-09-23T13:51:43;21.50;99.90
10512;DHT22;5304;48.604;2.096;2022-09-23T13:54:47;21.40;99.90
10512;DHT22;5304;48.604;2.096;2022-09-23T13:57:33;21.30;99.90
10512;DHT22;5304;48.604;2.096;2022-09-23T14:00:20;21.20;99.90
10512;DHT22;5304;48.604;2.096;2022-09-23T14:03:30;21.10;99.90
10512;DHT22;5304;48.604;2.096;2022-09-23T14:06:14;21.00;99.90
10512;DHT22;5304;48.604;2.096;2022-09-23T14:09:00;20.90;99.90
10512;DHT22;5304;48.604;2.096;2022-09-23T14:11:46;20.90;99.90
10512;DHT22;5304;48.604;2.096;2022-09-23T14:14:33;21.00;99.90
10512;DHT22;5304;48.604;2.096;2022-09-23T14:17:21;21.20;99.90
10512;DHT22;5304;48.604;2.096;2022-09-23T14:20:14;21.20;99.90
10512;DHT22;5304;48.604;2.096;2022-09-23T14:23:08;21.40;99.90
10512;DHT22;5304;48.604;2.096;2022-09-23T14:25:54;21.50;99.90
10512;DHT22;5304;48.604;2.096;2022-09-23T14:28:39;21.80;99.90
10512;DHT22;5304;48.604;2.096;2022-09-23T14:31:24;21.80;99.90
10512;DHT22;5304;48.604;2.096;2022-09-23T14:34:44;21.80;99.90
10512;DHT22;5304;48.604;2.096;2022-09-23T14:40:56;21.60;99.90
10512;DHT22;5304;48.604;2.096;2022-09-23T14:44:00;21.40;99.90
10512;DHT22;5304;48.604;2.096;2022-09-23T14:46:56;21.30;99.90
10512;DHT22;5304;48.604;2.096;2022-09-23T14:49:46;21.20;99.90
10512;DHT22;5304;48.604;2.096;2022-09-23T14:52:51;21.20;99.90
10512;DHT22;5304;48.604;2.096;2022-09-23T14:55:36;21.10;99.90
10512;DHT22;5304;48.604;2.096;2022-09-23T14:58:25;21.30;99.90
10512;DHT22;5304;48.604;2.096;2022-09-23T15:01:31;21.50;99.90
10512;DHT22;5304;48.604;2.096;2022-09-23T15:04:26;21.30;99.90
10512;DHT22;5304;48.604;2.096;2022-09-23T15:07:17;21.20;99.90
10512;DHT22;5304;48.604;2.096;2022-09-23T15:10:13;21.30;99.90
10512;DHT22;5304;48.604;2.096;2022-09-23T15:13:29;21.30;99.90
10512;DHT22;5304;48.604;2.096;2022-09-23T15:16:15;21.00;99.90
10512;DHT22;5304;48.604;2.096;2022-09-23T15:19:00;21.00;99.90
10512;DHT22;5304;48.604;2.096;2022-09-23T15:21:45;20.90;99.90
10512;DHT22;5304;48.604;2.096;2022-09-23T15:24:37;20.80;99.90
10512;DHT22;5304;48.604;2.096;2022-09-23T15:27:31;20.80;99.90
10512;DHT22;5304;48.604;2.096;2022-09-23T15:30:18;20.70;99.90
10512;DHT22;5304;48.604;2.096;2022-09-23T15:33:03;20.60;99.90
10512;DHT22;5304;48.604;2.096;2022-09-23T15:35:47;20.60;99.90
10512;DHT22;5304;48.604;2.096;2022-09-23T15:38:32;20.50;99.90
10512;DHT22;5304;48.604;2.096;2022-09-23T15:41:16;20.50;99.90
10512;DHT22;5304;48.604;2.096;2022-09-23T15:44:21;20.50;99.90
10512;DHT22;5304;48.604;2.096;2022-09-23T15:47:14;20.50;99.90
10512;DHT22;5304;48.604;2.096;2022-09-23T15:50:04;20.40;99.90
10512;DHT22;5304;48.604;2.096;2022-09-23T15:52:50;20.40;99.90
10512;DHT22;5304;48.604;2.096;2022-09-23T15:55:34;20.30;99.90
10512;DHT22;5304;48.604;2.096;2022-09-23T15:58:20;20.20;99.90
10512;DHT22;5304;48.604;2.096;2022-09-23T16:01:05;20.30;99.90
10512;DHT22;5304;48.604;2.096;2022-09-23T16:03:50;20.20;99.90
10512;DHT22;5304;48.604;2.096;2022-09-23T16:06:34;20.20;99.90
10512;DHT22;5304;48.604;2.096;2022-09-23T16:09:19;20.20;99.90
10512;DHT22;5304;48.604;2.096;2022-09-23T16:12:04;20.10;99.90
10512;DHT22;5304;48.604;2.096;2022-09-23T16:14:48;20.10;99.90
10512;DHT22;5304;48.604;2.096;2022-09-23T16:17:33;20.10;99.90
10512;DHT22;5304;48.604;2.096;2022-09-23T16:20:18;20.10;99.90
10512;DHT22;5304;48.604;2.096;2022-09-23T16:23:12;20.10;99.90
10512;DHT22;5304;48.604;2.096;2022-09-23T16:26:17;20.00;99.90
10512;DHT22;5304;48.604;2.096;2022-09-23T16:29:02;19.90;99.90
10512;DHT22;5304;48.604;2.096;2022-09-23T16:31:47;19.90;99.90
10512;DHT22;5304;48.604;2.096;2022-09-23T16:34:31;19.80;99.90
10512;DHT22;5304;48.604;2.096;2022-09-23T16:37:18;19.70;99.90
10512;DHT22;5304;48.604;2.096;2022-09-23T16:40:04;19.60;99.90
10512;DHT22;5304;48.604;2.096;2022-09-23T16:42:51;19.50;99.90
10512;DHT22;5304;48.604;2.096;2022-09-23T16:45:37;19.50;99.90
10512;DHT22;5304;48.604;2.096;2022-09-23T16:48:23;19.40;99.90
10512;DHT22;5304;48.604;2.096;2022-09-23T16:51:19;19.40;99.90
10512;DHT22;5304;48.604;2.096;2022-09-23T16:54:09;19.30;99.90
10512;DHT22;5304;48.604;2.096;2022-09-23T16:56:54;19.30;99.90
10512;DHT22;5304;48.604;2.096;2022-09-23T16:59:39;19.20;99.90
10512;DHT22;5304;48.604;2.096;2022-09-23T17:02:42;19.10;99.90
10512;DHT22;5304;48.604;2.096;2022-09-23T17:05:46;19.00;99.90
10512;DHT22;5304;48.604;2.096;2022-09-23T17:08:31;18.90;99.90
10512;DHT22;5304;48.604;2.096;2022-09-23T17:11:17;18.90;99.90
10512;DHT22;5304;48.604;2.096;2022-09-23T17:14:03;18.90;99.90
10512;DHT22;5304;48.604;2.096;2022-09-23T17:16:48;18.80;99.90
10512;DHT22;5304;48.604;2.096;2022-09-23T17:19:32;18.70;99.90
10512;DHT22;5304;48.604;2.096;2022-09-23T17:22:17;18.60;99.90
10512;DHT22;5304;48.604;2.096;2022-09-23T17:25:02;18.60;99.90
10512;DHT22;5304;48.604;2.096;2022-09-23T17:27:48;18.60;99.90
10512;DHT22;5304;48.604;2.096;2022-09-23T17:30:32;18.50;99.90
10512;DHT22;5304;48.604;2.096;2022-09-23T17:33:17;18.50;99.90
10512;DHT22;5304;48.604;2.096;2022-09-23T17:36:06;18.50;99.90
10512;DHT22;5304;48.604;2.096;2022-09-23T17:38:52;18.40;99.90
10512;DHT22;5304;48.604;2.096;2022-09-23T17:41:36;18.40;99.90
10512;DHT22;5304;48.604;2.096;2022-09-23T17:44:22;18.40;99.90
10512;DHT22;5304;48.604;2.096;2022-09-23T17:47:07;18.30;99.90
10512;DHT22;5304;48.604;2.096;2022-09-23T17:49:51;18.30;99.90
10512;DHT22;5304;48.604;2.096;2022-09-23T17:52:37;18.20;99.90
10512;DHT22;5304;48.604;2.096;2022-09-23T17:55:21;18.10;99.90
10512;DHT22;5304;48.604;2.096;2022-09-23T17:58:06;18.00;99.90
10512;DHT22;5304;48.604;2.096;2022-09-23T18:00:51;17.90;99.90
10512;DHT22;5304;48.604;2.096;2022-09-23T18:03:35;17.80;99.90
10512;DHT22;5304;48.604;2.096;2022-09-23T18:06:22;17.70;99.90
10512;DHT22;5304;48.604;2.096;2022-09-23T18:09:07;17.60;99.90
10512;DHT22;5304;48.604;2.096;2022-09-23T18:11:51;17.50;99.90
10512;DHT22;5304;48.604;2.096;2022-09-23T18:14:36;17.40;99.90
10512;DHT22;5304;48.604;2.096;2022-09-23T18:17:20;17.30;99.90
10512;DHT22;5304;48.604;2.096;2022-09-23T18:20:06;17.30;99.90
10512;DHT22;5304;48.604;2.096;2022-09-23T18:22:51;17.20;99.90
10512;DHT22;5304;48.604;2.096;2022-09-23T18:25:35;17.20;99.90
10512;DHT22;5304;48.604;2.096;2022-09-23T18:28:20;17.30;99.90
10512;DHT22;5304;48.604;2.096;2022-09-23T18:31:04;17.20;99.90
10512;DHT22;5304;48.604;2.096;2022-09-23T18:33:50;17.10;99.90
10512;DHT22;5304;48.604;2.096;2022-09-23T18:36:34;17.00;99.90
10512;DHT22;5304;48.604;2.096;2022-09-23T18:39:19;16.90;99.90
10512;DHT22;5304;48.604;2.096;2022-09-23T18:42:03;16.90;99.90
10512;DHT22;5304;48.604;2.096;2022-09-23T18:44:49;16.80;99.90
10512;DHT22;5304;48.604;2.096;2022-09-23T18:47:37;16.80;99.90
10512;DHT22;5304;48.604;2.096;2022-09-23T18:50:41;16.70;99.90
10512;DHT22;5304;48.604;2.096;2022-09-23T18:53:26;16.70;99.90
10512;DHT22;5304;48.604;2.096;2022-09-23T18:56:14;16.70;99.90
10512;DHT22;5304;48.604;2.096;2022-09-23T18:58:59;16.60;99.90
10512;DHT22;5304;48.604;2.096;2022-09-23T19:01:44;16.50;99.90
10512;DHT22;5304;48.604;2.096;2022-09-23T19:04:28;16.40;99.90
10512;DHT22;5304;48.604;2.096;2022-09-23T19:07:13;16.30;99.90
10512;DHT22;5304;48.604;2.096;2022-09-23T19:09:58;16.30;99.90
10512;DHT22;5304;48.604;2.096;2022-09-23T19:12:43;16.20;99.90
10512;DHT22;5304;48.604;2.096;2022-09-23T19:15:29;16.30;99.90
10512;DHT22;5304;48.604;2.096;2022-09-23T19:18:13;16.20;99.90
10512;DHT22;5304;48.604;2.096;2022-09-23T19:20:58;16.20;99.90
10512;DHT22;5304;48.604;2.096;2022-09-23T19:23:51;16.20;99.90
10512;DHT22;5304;48.604;2.096;2022-09-23T19:26:38;16.20;99.90
10512;DHT22;5304;48.604;2.096;2022-09-23T19:29:23;16.10;99.90
10512;DHT22;5304;48.604;2.096;2022-09-23T19:32:07;16.10;99.90
10512;DHT22;5304;48.604;2.096;2022-09-23T19:34:52;16.20;99.90
10512;DHT22;5304;48.604;2.096;2022-09-23T19:37:37;16.20;99.90
10512;DHT22;5304;48.604;2.096;2022-09-23T19:40:21;16.20;99.90
10512;DHT22;5304;48.604;2.096;2022-09-23T19:43:05;16.10;99.90
10512;DHT22;5304;48.604;2.096;2022-09-23T19:45:53;16.10;99.90
10512;DHT22;5304;48.604;2.096;2022-09-23T19:48:37;16.10;99.90
10512;DHT22;5304;48.604;2.096;2022-09-23T19:51:22;16.20;99.90
10512;DHT22;5304;48.604;2.096;2022-09-23T19:54:07;16.20;99.90
10512;DHT22;5304;48.604;2.096;2022-09-23T19:56:52;16.20;99.90
10512;DHT22;5304;48.604;2.096;2022-09-23T19:59:36;16.20;99.90
10512;DHT22;5304;48.604;2.096;2022-09-23T20:02:21;16.20;99.90
10512;DHT22;5304;48.604;2.096;2022-09-23T20:05:06;16.20;99.90
10512;DHT22;5304;48.604;2.096;2022-09-23T20:07:50;16.10;99.90
10512;DHT22;5304;48.604;2.096;2022-09-23T20:10:37;16.20;99.90
10512;DHT22;5304;48.604;2.096;2022-09-23T20:13:23;16.10;99.90
10512;DHT22;5304;48.604;2.096;2022-09-23T20:16:08;16.10;99.90
10512;DHT22;5304;48.604;2.096;2022-09-23T20:18:55;16.30;99.90
10512;DHT22;5304;48.604;2.096;2022-09-23T20:21:39;16.30;99.90
10512;DHT22;5304;48.604;2.096;2022-09-23T20:24:24;16.20;99.90
10512;DHT22;5304;48.604;2.096;2022-09-23T20:27:08;16.20;99.90
10512;DHT22;5304;48.604;2.096;2022-09-23T20:29:53;16.10;99.90
10512;DHT22;5304;48.604;2.096;2022-09-23T20:32:39;16.10;99.90
10512;DHT22;5304;48.604;2.096;2022-09-23T20:35:23;16.10;99.90
10512;DHT22;5304;48.604;2.096;2022-09-23T20:38:08;16.10;99.90